createdAt,value
2022-08-05T00:04:57.102Z,21.84
2022-08-05T00:09:59.295Z,21.72
2022-08-05T00:15:54.214Z,21.67
2022-08-05T00:20:23.438Z,21.66
2022-08-05T00:25:45.567Z,21.60
2022-08-05T00:30:52.075Z,21.53
2022-08-05T00:36:15.989Z,21.44
2022-08-05T00:41:51.546Z,21.31
2022-08-05T00:47:03.893Z,21.21
2022-08-05T00:52:07.870Z,21.14
2022-08-05T00:57:09.745Z,21.11
2022-08-05T01:02:11.945Z,20.97
2022-08-05T01:07:14.022Z,20.93
2022-08-05T01:12:22.357Z,20.90
2022-08-05T01:17:53.796Z,20.85
2022-08-05T01:23:14.386Z,20.68
2022-08-05T01:29:04.218Z,20.45
2022-08-05T01:34:29.981Z,20.29
2022-08-05T01:39:46.453Z,20.14
2022-08-05T01:44:53.818Z,20.13
2022-08-05T01:50:02.791Z,20.09
2022-08-05T01:55:12.607Z,20.00
2022-08-05T02:00:15.627Z,19.87
2022-08-05T02:05:23.478Z,19.62
2022-08-05T02:10:32.775Z,19.31
2022-08-05T02:15:43.558Z,19.18
2022-08-05T02:20:53.926Z,19.26
2022-08-05T02:26:04.740Z,19.39
2022-08-05T02:31:28.321Z,19.44
2022-08-05T02:36:34.989Z,19.52
2022-08-05T02:41:57.626Z,19.56
2022-08-05T02:47:09.414Z,19.57
2022-08-05T02:52:29.290Z,19.62
2022-08-05T02:58:12.113Z,19.55
2022-08-05T03:02:58.585Z,19.58
2022-08-05T03:08:08.766Z,19.58
2022-08-05T03:13:17.052Z,19.46
2022-08-05T03:18:19.034Z,19.31
2022-08-05T03:23:34.301Z,19.12
2022-08-05T03:28:37.099Z,19.04
2022-08-05T03:33:51.183Z,19.18
2022-08-05T03:38:55.219Z,19.28
2022-08-05T03:44:08.633Z,19.32
2022-08-05T03:49:14.977Z,19.24
2022-08-05T03:55:07.228Z,19.28
2022-08-05T03:59:57.989Z,19.32
2022-08-05T04:05:02.861Z,19.26
2022-08-05T04:10:06.253Z,19.39
2022-08-05T04:15:15.437Z,19.40
2022-08-05T04:20:22.133Z,19.32
2022-08-05T04:25:56.592Z,19.36
2022-08-05T04:30:48.614Z,19.32
2022-08-05T04:36:16.439Z,19.49
2022-08-05T04:41:13.539Z,19.76
2022-08-05T04:46:28.430Z,19.92
2022-08-05T04:51:31.616Z,20.16
2022-08-05T04:56:37.007Z,20.51
2022-08-05T05:02:08.159Z,20.79
2022-08-05T05:07:01.326Z,21.12
2022-08-05T05:12:06.318Z,21.19
2022-08-05T05:17:09.543Z,21.31
2022-08-05T05:22:23.797Z,21.44
2022-08-05T05:27:44.286Z,21.63
2022-08-05T05:32:47.153Z,21.73
2022-08-05T05:38:00.021Z,21.81
2022-08-05T05:43:04.337Z,22.03
2022-08-05T05:48:10.603Z,22.29
2022-08-05T05:53:22.147Z,22.40
2022-08-05T05:58:30.286Z,22.58
2022-08-05T06:03:54.407Z,22.81
2022-08-05T06:08:55.918Z,23.12
2022-08-05T06:13:58.182Z,23.35
2022-08-05T06:19:11.351Z,23.65
2022-08-05T06:24:15.864Z,23.87
2022-08-05T06:29:25.525Z,24.04
2022-08-05T06:34:45.036Z,24.28
2022-08-05T06:39:50.692Z,24.52
2022-08-05T06:44:53.894Z,24.82
2022-08-05T06:50:01.444Z,25.05
2022-08-05T06:55:07.234Z,25.24
2022-08-05T07:00:11.590Z,25.48
2022-08-05T07:05:18.943Z,25.81
2022-08-05T07:10:30.478Z,26.02
2022-08-05T07:16:01.734Z,26.20
2022-08-05T07:21:08.385Z,26.44
2022-08-05T07:26:13.299Z,26.70
2022-08-05T07:31:18.675Z,26.92
2022-08-05T07:36:42.726Z,27.15
2022-08-05T07:42:14.719Z,27.34
2022-08-05T07:47:10.166Z,27.51
2022-08-05T07:52:17.283Z,27.71
2022-08-05T07:57:41.529Z,27.94
2022-08-05T08:03:14.850Z,28.20
2022-08-05T08:08:12.353Z,28.51
2022-08-05T08:13:22.100Z,28.64
2022-08-05T08:18:32.620Z,28.83
2022-08-05T08:24:01.801Z,29.02
2022-08-05T08:29:29.319Z,29.26
2022-08-05T08:34:30.602Z,29.45
2022-08-05T08:39:37.549Z,29.67
2022-08-05T08:45:22.446Z,29.83
2022-08-05T08:50:30.437Z,30.04
2022-08-05T08:56:04.014Z,30.24
2022-08-05T09:00:58.849Z,30.30
2022-08-05T09:06:07.694Z,30.48
2022-08-05T09:11:13.849Z,30.66
2022-08-05T09:16:17.822Z,30.83
2022-08-05T09:22:24.960Z,31.01
2022-08-05T09:26:56.945Z,31.27
2022-08-05T09:32:41.353Z,31.44
2022-08-05T09:38:17.233Z,31.74
2022-08-05T09:42:53.935Z,31.88
2022-08-05T09:47:57.537Z,31.84
2022-08-05T09:53:01.209Z,32.11
2022-08-05T09:58:16.214Z,32.31
2022-08-05T10:03:21.256Z,32.45
2022-08-05T10:08:36.156Z,32.63
2022-08-05T10:13:45.697Z,32.71
2022-08-05T10:18:51.777Z,32.80
2022-08-05T10:24:00.386Z,32.93
2022-08-05T10:29:04.313Z,33.10
2022-08-05T10:34:10.138Z,33.26
2022-08-05T10:39:58.913Z,33.64
2022-08-05T10:44:57.623Z,33.91
2022-08-05T10:50:32.175Z,33.97
2022-08-05T10:55:26.469Z,34.09
2022-08-05T11:00:31.087Z,34.18
2022-08-05T11:05:35.892Z,34.24
2022-08-05T11:11:00.059Z,34.22
2022-08-05T11:16:33.937Z,34.43
2022-08-05T11:21:49.554Z,34.60
2022-08-05T11:27:51.036Z,34.57
2022-08-05T11:33:43.789Z,34.73
2022-08-05T11:38:51.927Z,34.68
2022-08-05T11:44:07.064Z,35.11
2022-08-05T11:49:14.796Z,35.30
2022-08-05T11:54:33.795Z,35.74
2022-08-05T11:59:41.280Z,35.80
2022-08-05T12:04:59.643Z,35.61
2022-08-05T12:10:09.544Z,35.81
2022-08-05T12:15:38.387Z,35.75
2022-08-05T12:20:43.381Z,36.22
2022-08-05T12:25:56.429Z,36.26
2022-08-05T12:31:02.428Z,36.37
2022-08-05T12:36:09.266Z,36.59
2022-08-05T12:41:14.909Z,36.76
2022-08-05T12:46:34.033Z,36.89
2022-08-05T12:52:12.790Z,36.83
2022-08-05T12:57:23.219Z,36.98
2022-08-05T13:02:30.449Z,37.03
2022-08-05T13:07:59.230Z,37.00
2022-08-05T13:12:58.448Z,37.29
2022-08-05T13:18:02.622Z,37.58
2022-08-05T13:23:07.351Z,37.75
2022-08-05T13:28:10.975Z,37.65
2022-08-05T13:34:22.197Z,37.50
2022-08-05T13:38:42.451Z,37.71
2022-08-05T13:43:54.502Z,38.15
2022-08-05T13:49:00.673Z,38.53
2022-08-05T13:54:12.310Z,38.69
2022-08-05T13:59:20.254Z,38.12
2022-08-05T14:04:43.382Z,37.55
2022-08-05T14:09:54.289Z,37.33
2022-08-05T14:14:58.092Z,37.19
2022-08-05T14:20:06.759Z,36.79
2022-08-05T14:25:19.242Z,36.86
2022-08-05T14:30:27.889Z,37.55
2022-08-05T14:35:50.317Z,37.96
2022-08-05T14:40:55.393Z,38.25
2022-08-05T14:45:59.739Z,38.42
2022-08-05T14:51:03.151Z,38.25
2022-08-05T14:56:06.870Z,38.30
2022-08-05T15:01:10.849Z,38.31
2022-08-05T15:06:19.938Z,37.79
2022-08-05T15:11:53.163Z,37.59
2022-08-05T15:16:56.767Z,37.58
2022-08-05T15:22:01.496Z,37.89
2022-08-05T15:27:04.859Z,37.57
2022-08-05T15:32:12.551Z,37.54
2022-08-05T15:37:19.354Z,38.04
2022-08-05T15:42:55.699Z,38.42
2022-08-05T15:48:04.378Z,38.33
2022-08-05T15:53:09.236Z,38.30
2022-08-05T15:58:16.708Z,37.84
2022-08-05T16:03:20.325Z,37.60
2022-08-05T16:08:24.250Z,37.59
2022-08-05T16:13:35.021Z,37.25
2022-08-05T16:18:52.747Z,36.75
2022-08-05T16:24:00.163Z,36.44
2022-08-05T16:29:06.271Z,36.13
2022-08-05T16:34:11.635Z,35.64
2022-08-05T16:39:15.815Z,35.81
2022-08-05T16:44:19.073Z,36.25
2022-08-05T16:49:26.785Z,36.31
2022-08-05T16:54:33.034Z,36.13
2022-08-05T17:00:00.322Z,36.04
2022-08-05T17:05:06.556Z,35.86
2022-08-05T17:10:10.601Z,35.38
2022-08-05T17:15:15.618Z,34.72
2022-08-05T17:20:22.900Z,34.12
2022-08-05T17:25:33.615Z,33.78
2022-08-05T17:30:42.413Z,33.70
2022-08-05T17:36:08.809Z,33.44
2022-08-05T17:42:18.235Z,33.27
2022-08-05T17:46:37.515Z,33.08
2022-08-05T17:51:41.747Z,32.88
2022-08-05T17:56:51.374Z,32.72
2022-08-05T18:01:54.614Z,32.65
2022-08-05T18:07:00.402Z,32.55
2022-08-05T18:12:05.700Z,32.50
2022-08-05T18:17:59.067Z,32.36
2022-08-05T18:22:36.201Z,32.18
2022-08-05T18:27:52.343Z,31.86
2022-08-05T18:33:00.313Z,31.41
2022-08-05T18:38:05.003Z,30.98
2022-08-05T18:43:09.154Z,30.66
2022-08-05T18:48:30.570Z,30.27
2022-08-05T18:53:45.681Z,29.90
2022-08-05T18:58:50.847Z,29.53
2022-08-05T19:03:56.946Z,29.23
2022-08-05T19:09:00.091Z,29.12
2022-08-05T19:14:15.258Z,28.91
2022-08-05T19:19:27.938Z,28.85
2022-08-05T19:24:34.648Z,28.75
2022-08-05T19:29:39.539Z,28.64
2022-08-05T19:34:54.366Z,28.56
2022-08-05T19:40:00.031Z,28.41
2022-08-05T19:45:05.617Z,28.24
2022-08-05T19:50:12.019Z,28.04
2022-08-05T19:56:14.386Z,27.69
2022-08-05T20:00:38.963Z,27.42
2022-08-05T20:05:51.246Z,27.09
2022-08-05T20:10:55.618Z,26.89
2022-08-05T20:15:59.744Z,26.73
2022-08-05T20:21:05.272Z,26.44
2022-08-05T20:26:15.299Z,26.23
2022-08-05T20:31:28.786Z,25.83
2022-08-05T20:36:45.266Z,25.42
2022-08-05T20:41:48.554Z,24.91
2022-08-05T20:46:51.865Z,24.81
2022-08-05T20:51:57.357Z,25.03
2022-08-05T20:57:05.334Z,25.28
2022-08-05T21:02:12.852Z,25.44
2022-08-05T21:07:21.792Z,25.41
2022-08-05T21:12:26.198Z,25.30
2022-08-05T21:17:30.152Z,25.19
2022-08-05T21:22:33.567Z,25.15
2022-08-05T21:27:38.992Z,25.04
2022-08-05T21:32:42.542Z,24.82
2022-08-05T21:37:47.141Z,24.89
2022-08-05T21:42:53.965Z,24.97
2022-08-05T21:47:57.970Z,24.48
2022-08-05T21:53:04.549Z,24.20
2022-08-05T21:58:24.831Z,24.38
2022-08-05T22:03:48.417Z,24.50
2022-08-05T22:08:54.977Z,24.47
2022-08-05T22:14:33.775Z,24.30
2022-08-05T22:20:02.074Z,24.06
2022-08-05T22:25:03.893Z,23.82
2022-08-05T22:30:15.343Z,23.69
2022-08-05T22:35:20.558Z,23.61
2022-08-05T22:40:28.187Z,23.51
2022-08-05T22:45:33.951Z,23.40
2022-08-05T22:50:40.409Z,23.24
2022-08-05T22:55:56.673Z,23.11
